Terminal Aerodrome Forecast
Issued by NWS

Current Version | Previous Version | Text Only | Print | Product List | Glossary Off
Versions: 1 2 3 4 5 6 7 8 9 10 11 12 13 14 15 16 17 18 19 20

000
FTUS41 KILN 230500
TAFLCK
TAF
KLCK 230535Z 2306/2406 12007KT P6SM OVC100
     FM230700 13007KT 5SM -SHRA BR SCT030 OVC060
     FM230900 15007KT P6SM VCSH BKN028 OVC050
     FM231200 16007KT P6SM OVC015
     FM232200 11004KT 5SM -SHRA BR OVC015
     FM240400 13005KT 5SM BR OVC015=

USA.gov is the U.S. government's official web portal to all federal, state and local government web resources and services.